메인 페이지
METAR-TAF:

METAR-TAF

공항 :

채터누가, 테네시, 미국

위도: 35-02-00N, 경도: 085-12-00W, 고도: 207m

현재 날씨관측

예보는 35분 전, 18:53시(UTC)에 발표되었습니다.
여러 방향의 바람 3kt
온도 14°C
습도 51%
기압 1011 hPa
시정: 16.1km
고도 6000ft 상공 구름 조금
고도 7000ft 상공 구름 조금

METAR: KCHA 191853Z VRB03KT 10SM FEW060 FEW070 14/04 A2984 RMK AO2 SLP102 T01440039

시각: 14:28 (19:28 UTC)

예보

예보는 1 시간 53분 전, 17:35시(UTC)에 발표되었습니다.
예보 대상 시간: 19일 18시부터 20일 18시까지 (UTC)
남서3kt
시정: 10km
고도 12000ft 상공 구름 보통
20일 0200시부터 (UTC)
북북서4kt
시정: 10km
고도 25000ft 상공 구름 많음
20일 1500시부터 (UTC)
북북동7kt
시정: 10km
고도 25000ft 상공 구름 보통

TAF: KCHA 191735Z 1918/2018 22003KT P6SM SCT120 FM200200 33004KT P6SM BKN250 FM201500 02007KT P6SM SCT250

4,000개 이상의 공항 관측 자료 및 예보 (METAR 및 TAF 보고).

지도상에서 검색 가능한 기상관측소가 노란 점과 빨간 점으로 표시되어 있습니다.

기상관측소 명을 보려면 표시 위로 마우스를 이동하세요.

날씨 관측과 예보를 보려면 클릭하세요.

지도 변경 : 확대하려면 엑스 표시가 있는 녹색 버튼, 축소하려면 빼기 표시가 있는 녹색 버튼, 다음 페이지의 지도를 보려면 녹색 화살표를 클릭하세요.


METAR-TAF: